sensor_id;sensor_type;location;lat;lon;timestamp;temperature;humidity
6654;DHT22;3363;50.942;7.034;2022-08-03T00:00:41;25.20;55.30
6654;DHT22;3363;50.942;7.034;2022-08-03T00:03:08;25.10;55.30
6654;DHT22;3363;50.942;7.034;2022-08-03T00:05:35;25.10;55.40
6654;DHT22;3363;50.942;7.034;2022-08-03T00:08:03;25.10;55.40
6654;DHT22;3363;50.942;7.034;2022-08-03T00:10:30;25.10;55.50
6654;DHT22;3363;50.942;7.034;2022-08-03T00:12:57;25.00;55.50
6654;DHT22;3363;50.942;7.034;2022-08-03T00:15:23;25.10;55.70
6654;DHT22;3363;50.942;7.034;2022-08-03T00:17:50;25.00;55.70
6654;DHT22;3363;50.942;7.034;2022-08-03T00:20:17;25.00;55.70
6654;DHT22;3363;50.942;7.034;2022-08-03T00:22:43;25.00;55.80
6654;DHT22;3363;50.942;7.034;2022-08-03T00:25:12;25.00;55.90
6654;DHT22;3363;50.942;7.034;2022-08-03T00:27:38;24.90;55.90
6654;DHT22;3363;50.942;7.034;2022-08-03T00:30:06;24.90;56.00
6654;DHT22;3363;50.942;7.034;2022-08-03T00:32:32;24.90;56.10
6654;DHT22;3363;50.942;7.034;2022-08-03T00:34:59;24.90;56.30
6654;DHT22;3363;50.942;7.034;2022-08-03T00:37:28;24.90;56.40
6654;DHT22;3363;50.942;7.034;2022-08-03T00:39:55;24.90;56.50
6654;DHT22;3363;50.942;7.034;2022-08-03T00:42:23;24.90;56.70
6654;DHT22;3363;50.942;7.034;2022-08-03T00:44:50;24.80;56.70
6654;DHT22;3363;50.942;7.034;2022-08-03T00:47:16;24.80;57.00
6654;DHT22;3363;50.942;7.034;2022-08-03T00:49:43;24.80;57.10
6654;DHT22;3363;50.942;7.034;2022-08-03T00:52:10;24.80;57.10
6654;DHT22;3363;50.942;7.034;2022-08-03T00:54:39;24.80;57.10
6654;DHT22;3363;50.942;7.034;2022-08-03T00:57:05;24.80;57.10
6654;DHT22;3363;50.942;7.034;2022-08-03T00:59:34;24.70;57.20
6654;DHT22;3363;50.942;7.034;2022-08-03T01:02:02;24.70;57.30
6654;DHT22;3363;50.942;7.034;2022-08-03T01:04:29;24.70;57.40
6654;DHT22;3363;50.942;7.034;2022-08-03T01:06:57;24.70;57.40
6654;DHT22;3363;50.942;7.034;2022-08-03T01:09:28;24.70;57.60
6654;DHT22;3363;50.942;7.034;2022-08-03T01:11:58;24.70;57.70
6654;DHT22;3363;50.942;7.034;2022-08-03T01:14:29;24.60;57.70
6654;DHT22;3363;50.942;7.034;2022-08-03T01:17:00;24.60;57.80
6654;DHT22;3363;50.942;7.034;2022-08-03T01:19:35;24.60;57.80
6654;DHT22;3363;50.942;7.034;2022-08-03T01:22:31;24.60;57.80
6654;DHT22;3363;50.942;7.034;2022-08-03T01:25:02;24.60;58.00
6654;DHT22;3363;50.942;7.034;2022-08-03T01:27:35;24.50;57.90
6654;DHT22;3363;50.942;7.034;2022-08-03T01:30:08;24.50;58.10
6654;DHT22;3363;50.942;7.034;2022-08-03T01:32:38;24.50;58.10
6654;DHT22;3363;50.942;7.034;2022-08-03T01:35:08;24.50;58.20
6654;DHT22;3363;50.942;7.034;2022-08-03T01:37:37;24.50;58.20
6654;DHT22;3363;50.942;7.034;2022-08-03T01:40:05;24.50;58.30
6654;DHT22;3363;50.942;7.034;2022-08-03T01:42:33;24.40;58.30
6654;DHT22;3363;50.942;7.034;2022-08-03T01:45:02;24.40;58.30
6654;DHT22;3363;50.942;7.034;2022-08-03T01:47:31;24.40;58.30
6654;DHT22;3363;50.942;7.034;2022-08-03T01:49:58;24.40;58.40
6654;DHT22;3363;50.942;7.034;2022-08-03T01:52:25;24.40;58.40
6654;DHT22;3363;50.942;7.034;2022-08-03T01:54:53;24.40;58.40
6654;DHT22;3363;50.942;7.034;2022-08-03T01:57:20;24.30;58.30
6654;DHT22;3363;50.942;7.034;2022-08-03T01:59:48;24.30;58.50
6654;DHT22;3363;50.942;7.034;2022-08-03T02:02:16;24.30;58.50
6654;DHT22;3363;50.942;7.034;2022-08-03T02:04:44;24.20;58.50
6654;DHT22;3363;50.942;7.034;2022-08-03T02:07:12;24.30;58.70
6654;DHT22;3363;50.942;7.034;2022-08-03T02:09:40;24.20;58.70
6654;DHT22;3363;50.942;7.034;2022-08-03T02:12:09;24.20;58.80
6654;DHT22;3363;50.942;7.034;2022-08-03T02:14:37;24.20;59.00
6654;DHT22;3363;50.942;7.034;2022-08-03T02:17:05;24.20;59.00
6654;DHT22;3363;50.942;7.034;2022-08-03T02:19:32;24.20;59.00
6654;DHT22;3363;50.942;7.034;2022-08-03T02:22:01;24.20;59.00
6654;DHT22;3363;50.942;7.034;2022-08-03T02:24:28;24.10;59.00
6654;DHT22;3363;50.942;7.034;2022-08-03T02:26:56;24.10;59.00
6654;DHT22;3363;50.942;7.034;2022-08-03T02:29:25;24.10;59.00
6654;DHT22;3363;50.942;7.034;2022-08-03T02:31:52;24.10;59.20
6654;DHT22;3363;50.942;7.034;2022-08-03T02:34:20;24.10;59.30
6654;DHT22;3363;50.942;7.034;2022-08-03T02:36:49;24.10;59.30
6654;DHT22;3363;50.942;7.034;2022-08-03T02:39:19;24.10;59.40
6654;DHT22;3363;50.942;7.034;2022-08-03T02:41:48;24.10;59.40
6654;DHT22;3363;50.942;7.034;2022-08-03T02:44:16;24.00;59.50
6654;DHT22;3363;50.942;7.034;2022-08-03T02:46:44;24.00;59.50
6654;DHT22;3363;50.942;7.034;2022-08-03T02:49:12;24.00;59.60
6654;DHT22;3363;50.942;7.034;2022-08-03T02:51:43;24.00;59.60
6654;DHT22;3363;50.942;7.034;2022-08-03T02:54:10;24.00;59.60
6654;DHT22;3363;50.942;7.034;2022-08-03T02:56:38;24.00;59.60
6654;DHT22;3363;50.942;7.034;2022-08-03T02:59:07;23.90;59.50
6654;DHT22;3363;50.942;7.034;2022-08-03T03:01:34;23.90;59.60
6654;DHT22;3363;50.942;7.034;2022-08-03T03:04:01;23.90;59.60
6654;DHT22;3363;50.942;7.034;2022-08-03T03:06:28;23.90;59.80
6654;DHT22;3363;50.942;7.034;2022-08-03T03:08:55;23.80;59.90
6654;DHT22;3363;50.942;7.034;2022-08-03T03:11:22;23.80;59.90
6654;DHT22;3363;50.942;7.034;2022-08-03T03:13:50;23.80;60.00
6654;DHT22;3363;50.942;7.034;2022-08-03T03:16:17;23.80;60.00
6654;DHT22;3363;50.942;7.034;2022-08-03T03:18:44;23.80;60.00
6654;DHT22;3363;50.942;7.034;2022-08-03T03:21:12;23.80;60.00
6654;DHT22;3363;50.942;7.034;2022-08-03T03:23:40;23.80;60.10
6654;DHT22;3363;50.942;7.034;2022-08-03T03:26:07;23.70;60.10
6654;DHT22;3363;50.942;7.034;2022-08-03T03:28:34;23.70;60.10
6654;DHT22;3363;50.942;7.034;2022-08-03T03:31:04;23.70;60.20
6654;DHT22;3363;50.942;7.034;2022-08-03T03:33:32;23.70;60.10
6654;DHT22;3363;50.942;7.034;2022-08-03T03:35:59;23.70;60.10
6654;DHT22;3363;50.942;7.034;2022-08-03T03:38:25;23.70;60.30
6654;DHT22;3363;50.942;7.034;2022-08-03T03:40:52;23.60;60.10
6654;DHT22;3363;50.942;7.034;2022-08-03T03:43:19;23.60;60.20
6654;DHT22;3363;50.942;7.034;2022-08-03T03:45:48;23.60;60.10
6654;DHT22;3363;50.942;7.034;2022-08-03T03:48:17;23.60;60.30
6654;DHT22;3363;50.942;7.034;2022-08-03T03:50:43;23.60;60.40
6654;DHT22;3363;50.942;7.034;2022-08-03T03:53:11;23.60;60.40
6654;DHT22;3363;50.942;7.034;2022-08-03T03:55:38;23.60;60.50
6654;DHT22;3363;50.942;7.034;2022-08-03T03:58:05;23.50;60.60
6654;DHT22;3363;50.942;7.034;2022-08-03T04:00:33;23.50;60.70
6654;DHT22;3363;50.942;7.034;2022-08-03T04:03:00;23.50;60.70
6654;DHT22;3363;50.942;7.034;2022-08-03T04:05:28;23.50;61.10
6654;DHT22;3363;50.942;7.034;2022-08-03T04:08:13;23.50;61.10
6654;DHT22;3363;50.942;7.034;2022-08-03T04:11:02;23.40;61.00
6654;DHT22;3363;50.942;7.034;2022-08-03T04:13:30;23.40;61.00
6654;DHT22;3363;50.942;7.034;2022-08-03T04:15:58;23.40;61.00
6654;DHT22;3363;50.942;7.034;2022-08-03T04:18:28;23.40;61.00
6654;DHT22;3363;50.942;7.034;2022-08-03T04:20:57;23.40;61.20
6654;DHT22;3363;50.942;7.034;2022-08-03T04:23:24;23.40;61.00
6654;DHT22;3363;50.942;7.034;2022-08-03T04:25:53;23.40;61.20
6654;DHT22;3363;50.942;7.034;2022-08-03T04:28:20;23.40;61.20
6654;DHT22;3363;50.942;7.034;2022-08-03T04:30:47;23.40;61.20
6654;DHT22;3363;50.942;7.034;2022-08-03T04:33:16;23.40;61.40
6654;DHT22;3363;50.942;7.034;2022-08-03T04:35:45;23.40;61.40
6654;DHT22;3363;50.942;7.034;2022-08-03T04:38:14;23.30;61.40
6654;DHT22;3363;50.942;7.034;2022-08-03T04:40:41;23.30;61.50
6654;DHT22;3363;50.942;7.034;2022-08-03T04:43:09;23.30;61.50
6654;DHT22;3363;50.942;7.034;2022-08-03T04:45:36;23.40;61.70
6654;DHT22;3363;50.942;7.034;2022-08-03T04:48:04;23.30;61.70
6654;DHT22;3363;50.942;7.034;2022-08-03T04:50:31;23.30;61.80
6654;DHT22;3363;50.942;7.034;2022-08-03T04:52:58;23.30;61.80
6654;DHT22;3363;50.942;7.034;2022-08-03T04:55:26;23.30;61.90
6654;DHT22;3363;50.942;7.034;2022-08-03T04:57:53;23.30;61.90
6654;DHT22;3363;50.942;7.034;2022-08-03T05:00:20;23.40;61.80
6654;DHT22;3363;50.942;7.034;2022-08-03T05:02:47;23.40;61.60
6654;DHT22;3363;50.942;7.034;2022-08-03T05:05:14;23.30;61.90
6654;DHT22;3363;50.942;7.034;2022-08-03T05:07:41;23.50;61.10
6654;DHT22;3363;50.942;7.034;2022-08-03T05:10:08;23.50;61.40
6654;DHT22;3363;50.942;7.034;2022-08-03T05:12:37;23.40;61.70
6654;DHT22;3363;50.942;7.034;2022-08-03T05:15:04;23.30;62.00
6654;DHT22;3363;50.942;7.034;2022-08-03T05:17:31;23.30;62.00
6654;DHT22;3363;50.942;7.034;2022-08-03T05:19:58;23.30;61.90
6654;DHT22;3363;50.942;7.034;2022-08-03T05:22:25;23.40;61.60
6654;DHT22;3363;50.942;7.034;2022-08-03T05:24:52;23.30;61.50
6654;DHT22;3363;50.942;7.034;2022-08-03T05:27:18;23.30;61.80
6654;DHT22;3363;50.942;7.034;2022-08-03T05:29:47;23.30;62.00
6654;DHT22;3363;50.942;7.034;2022-08-03T05:32:14;23.30;62.20
6654;DHT22;3363;50.942;7.034;2022-08-03T05:34:41;23.30;62.10
6654;DHT22;3363;50.942;7.034;2022-08-03T05:37:09;23.20;62.50
6654;DHT22;3363;50.942;7.034;2022-08-03T05:39:36;23.20;61.90
6654;DHT22;3363;50.942;7.034;2022-08-03T05:42:03;23.20;61.60
6654;DHT22;3363;50.942;7.034;2022-08-03T05:44:30;23.20;61.40
6654;DHT22;3363;50.942;7.034;2022-08-03T05:46:58;23.20;61.40
6654;DHT22;3363;50.942;7.034;2022-08-03T05:49:25;23.20;61.30
6654;DHT22;3363;50.942;7.034;2022-08-03T05:51:51;23.20;61.10
6654;DHT22;3363;50.942;7.034;2022-08-03T05:54:18;23.20;61.10
6654;DHT22;3363;50.942;7.034;2022-08-03T05:56:44;23.10;61.10
6654;DHT22;3363;50.942;7.034;2022-08-03T05:59:11;23.10;61.60
6654;DHT22;3363;50.942;7.034;2022-08-03T06:01:38;23.10;61.40
6654;DHT22;3363;50.942;7.034;2022-08-03T06:04:06;23.20;61.20
6654;DHT22;3363;50.942;7.034;2022-08-03T06:06:33;23.20;60.80
6654;DHT22;3363;50.942;7.034;2022-08-03T06:09:00;23.20;60.80
6654;DHT22;3363;50.942;7.034;2022-08-03T06:11:26;23.20;60.80
6654;DHT22;3363;50.942;7.034;2022-08-03T06:13:53;23.20;60.80
6654;DHT22;3363;50.942;7.034;2022-08-03T06:16:20;23.10;60.70
6654;DHT22;3363;50.942;7.034;2022-08-03T06:18:46;23.10;60.70
6654;DHT22;3363;50.942;7.034;2022-08-03T06:21:14;23.10;60.80
6654;DHT22;3363;50.942;7.034;2022-08-03T06:23:42;23.10;61.20
6654;DHT22;3363;50.942;7.034;2022-08-03T06:26:08;23.10;60.70
6654;DHT22;3363;50.942;7.034;2022-08-03T06:28:35;23.20;60.80
6654;DHT22;3363;50.942;7.034;2022-08-03T06:31:02;23.20;60.80
6654;DHT22;3363;50.942;7.034;2022-08-03T06:33:29;23.20;60.70
6654;DHT22;3363;50.942;7.034;2022-08-03T06:35:55;23.20;60.60
6654;DHT22;3363;50.942;7.034;2022-08-03T06:38:23;23.10;60.80
6654;DHT22;3363;50.942;7.034;2022-08-03T06:40:50;23.10;60.70
6654;DHT22;3363;50.942;7.034;2022-08-03T06:43:17;23.10;60.70
6654;DHT22;3363;50.942;7.034;2022-08-03T06:45:43;23.10;61.40
6654;DHT22;3363;50.942;7.034;2022-08-03T06:48:10;23.10;61.70
6654;DHT22;3363;50.942;7.034;2022-08-03T06:50:38;23.10;61.30
6654;DHT22;3363;50.942;7.034;2022-08-03T06:53:05;23.20;61.00
6654;DHT22;3363;50.942;7.034;2022-08-03T06:55:34;23.20;61.00
6654;DHT22;3363;50.942;7.034;2022-08-03T06:58:01;23.20;61.20
6654;DHT22;3363;50.942;7.034;2022-08-03T07:00:28;23.30;61.30
6654;DHT22;3363;50.942;7.034;2022-08-03T07:02:55;23.10;62.80
6654;DHT22;3363;50.942;7.034;2022-08-03T07:05:22;23.20;61.60
6654;DHT22;3363;50.942;7.034;2022-08-03T07:07:48;23.20;61.50
6654;DHT22;3363;50.942;7.034;2022-08-03T07:10:15;23.20;61.50
6654;DHT22;3363;50.942;7.034;2022-08-03T07:12:43;23.20;61.60
6654;DHT22;3363;50.942;7.034;2022-08-03T07:15:10;23.20;61.40
6654;DHT22;3363;50.942;7.034;2022-08-03T07:17:37;23.20;61.70
6654;DHT22;3363;50.942;7.034;2022-08-03T07:20:04;23.20;62.80
6654;DHT22;3363;50.942;7.034;2022-08-03T07:22:32;23.10;65.40
6654;DHT22;3363;50.942;7.034;2022-08-03T07:24:59;23.10;64.70
6654;DHT22;3363;50.942;7.034;2022-08-03T07:27:25;23.20;63.00
6654;DHT22;3363;50.942;7.034;2022-08-03T07:29:54;23.30;62.50
6654;DHT22;3363;50.942;7.034;2022-08-03T07:32:21;23.30;62.70
6654;DHT22;3363;50.942;7.034;2022-08-03T07:34:48;23.40;62.40
6654;DHT22;3363;50.942;7.034;2022-08-03T07:37:15;23.50;61.80
6654;DHT22;3363;50.942;7.034;2022-08-03T07:39:41;23.50;61.40
6654;DHT22;3363;50.942;7.034;2022-08-03T07:42:09;23.60;61.10
6654;DHT22;3363;50.942;7.034;2022-08-03T07:44:35;23.60;62.00
6654;DHT22;3363;50.942;7.034;2022-08-03T07:47:05;23.60;61.10
6654;DHT22;3363;50.942;7.034;2022-08-03T07:49:31;23.60;61.10
6654;DHT22;3363;50.942;7.034;2022-08-03T07:51:58;23.70;60.30
6654;DHT22;3363;50.942;7.034;2022-08-03T07:54:42;23.70;61.20
6654;DHT22;3363;50.942;7.034;2022-08-03T07:57:09;23.80;60.70
6654;DHT22;3363;50.942;7.034;2022-08-03T07:59:36;23.80;60.90
6654;DHT22;3363;50.942;7.034;2022-08-03T08:02:06;23.90;60.70
6654;DHT22;3363;50.942;7.034;2022-08-03T08:04:32;23.80;60.20
6654;DHT22;3363;50.942;7.034;2022-08-03T08:06:59;23.90;60.90
6654;DHT22;3363;50.942;7.034;2022-08-03T08:09:26;24.20;60.70
6654;DHT22;3363;50.942;7.034;2022-08-03T08:11:52;24.20;57.80
6654;DHT22;3363;50.942;7.034;2022-08-03T08:14:19;24.10;58.50
6654;DHT22;3363;50.942;7.034;2022-08-03T08:16:46;24.20;58.00
6654;DHT22;3363;50.942;7.034;2022-08-03T08:19:15;24.20;57.80
6654;DHT22;3363;50.942;7.034;2022-08-03T08:21:42;24.30;58.00
6654;DHT22;3363;50.942;7.034;2022-08-03T08:24:09;24.30;56.80
6654;DHT22;3363;50.942;7.034;2022-08-03T08:26:35;24.50;57.20
6654;DHT22;3363;50.942;7.034;2022-08-03T08:29:02;24.40;56.70
6654;DHT22;3363;50.942;7.034;2022-08-03T08:31:29;24.50;56.50
6654;DHT22;3363;50.942;7.034;2022-08-03T08:33:56;24.70;56.30
6654;DHT22;3363;50.942;7.034;2022-08-03T08:36:24;24.70;56.10
6654;DHT22;3363;50.942;7.034;2022-08-03T08:38:51;24.70;55.20
6654;DHT22;3363;50.942;7.034;2022-08-03T08:41:17;24.70;54.50
6654;DHT22;3363;50.942;7.034;2022-08-03T08:43:44;24.90;54.40
6654;DHT22;3363;50.942;7.034;2022-08-03T08:46:11;24.90;54.20
6654;DHT22;3363;50.942;7.034;2022-08-03T08:48:39;24.90;54.60
6654;DHT22;3363;50.942;7.034;2022-08-03T08:51:06;25.00;54.00
6654;DHT22;3363;50.942;7.034;2022-08-03T08:53:35;25.00;54.00
6654;DHT22;3363;50.942;7.034;2022-08-03T08:56:02;25.20;53.00
6654;DHT22;3363;50.942;7.034;2022-08-03T08:58:33;25.20;54.00
6654;DHT22;3363;50.942;7.034;2022-08-03T09:01:01;25.30;54.40
6654;DHT22;3363;50.942;7.034;2022-08-03T09:03:28;25.30;53.30
6654;DHT22;3363;50.942;7.034;2022-08-03T09:05:55;25.40;52.50
6654;DHT22;3363;50.942;7.034;2022-08-03T09:08:22;25.50;51.90
6654;DHT22;3363;50.942;7.034;2022-08-03T09:10:50;25.60;51.60
6654;DHT22;3363;50.942;7.034;2022-08-03T09:13:17;25.80;50.30
6654;DHT22;3363;50.942;7.034;2022-08-03T09:15:44;25.80;49.80
6654;DHT22;3363;50.942;7.034;2022-08-03T09:18:11;26.10;49.50
6654;DHT22;3363;50.942;7.034;2022-08-03T09:20:38;26.10;48.60
6654;DHT22;3363;50.942;7.034;2022-08-03T09:23:05;26.20;48.80
6654;DHT22;3363;50.942;7.034;2022-08-03T09:25:34;26.20;49.00
6654;DHT22;3363;50.942;7.034;2022-08-03T09:28:07;26.30;48.70
6654;DHT22;3363;50.942;7.034;2022-08-03T09:30:34;26.40;48.40
6654;DHT22;3363;50.942;7.034;2022-08-03T09:33:01;27.20;45.20
6654;DHT22;3363;50.942;7.034;2022-08-03T09:35:28;26.90;47.00
6654;DHT22;3363;50.942;7.034;2022-08-03T09:38:10;26.90;47.90
6654;DHT22;3363;50.942;7.034;2022-08-03T09:40:37;27.00;46.80
6654;DHT22;3363;50.942;7.034;2022-08-03T09:43:04;27.10;46.30
6654;DHT22;3363;50.942;7.034;2022-08-03T09:45:34;27.10;46.20
6654;DHT22;3363;50.942;7.034;2022-08-03T09:48:19;27.10;46.20
6654;DHT22;3363;50.942;7.034;2022-08-03T09:50:46;27.40;44.60
6654;DHT22;3363;50.942;7.034;2022-08-03T09:53:13;27.40;45.70
6654;DHT22;3363;50.942;7.034;2022-08-03T09:55:47;27.40;45.10
6654;DHT22;3363;50.942;7.034;2022-08-03T09:58:15;27.50;44.10
6654;DHT22;3363;50.942;7.034;2022-08-03T10:00:52;27.60;44.30
6654;DHT22;3363;50.942;7.034;2022-08-03T10:03:19;27.60;44.40
6654;DHT22;3363;50.942;7.034;2022-08-03T10:05:46;27.80;42.60
6654;DHT22;3363;50.942;7.034;2022-08-03T10:08:13;27.80;44.30
6654;DHT22;3363;50.942;7.034;2022-08-03T10:10:41;27.80;43.40
6654;DHT22;3363;50.942;7.034;2022-08-03T10:13:07;27.90;41.60
6654;DHT22;3363;50.942;7.034;2022-08-03T10:15:34;28.00;42.50
6654;DHT22;3363;50.942;7.034;2022-08-03T10:18:02;28.10;43.00
6654;DHT22;3363;50.942;7.034;2022-08-03T10:20:29;28.20;42.80
6654;DHT22;3363;50.942;7.034;2022-08-03T10:22:57;28.20;42.10
6654;DHT22;3363;50.942;7.034;2022-08-03T10:25:23;28.50;42.30
6654;DHT22;3363;50.942;7.034;2022-08-03T10:27:51;28.40;41.10
6654;DHT22;3363;50.942;7.034;2022-08-03T10:30:18;28.40;41.10
6654;DHT22;3363;50.942;7.034;2022-08-03T10:32:46;28.50;41.60
6654;DHT22;3363;50.942;7.034;2022-08-03T10:35:15;28.50;40.70
6654;DHT22;3363;50.942;7.034;2022-08-03T10:37:44;28.50;41.40
6654;DHT22;3363;50.942;7.034;2022-08-03T10:40:12;28.70;40.50
6654;DHT22;3363;50.942;7.034;2022-08-03T10:42:40;28.80;38.90
6654;DHT22;3363;50.942;7.034;2022-08-03T10:45:22;29.00;39.30
6654;DHT22;3363;50.942;7.034;2022-08-03T10:47:50;29.10;39.60
6654;DHT22;3363;50.942;7.034;2022-08-03T10:50:18;29.00;39.50
6654;DHT22;3363;50.942;7.034;2022-08-03T10:52:54;29.10;38.00
6654;DHT22;3363;50.942;7.034;2022-08-03T10:55:28;29.00;36.70
6654;DHT22;3363;50.942;7.034;2022-08-03T10:58:12;29.10;38.30
6654;DHT22;3363;50.942;7.034;2022-08-03T11:00:48;29.10;38.40
6654;DHT22;3363;50.942;7.034;2022-08-03T11:03:15;29.20;37.20
6654;DHT22;3363;50.942;7.034;2022-08-03T11:05:44;29.20;36.90
6654;DHT22;3363;50.942;7.034;2022-08-03T11:08:25;29.40;35.90
6654;DHT22;3363;50.942;7.034;2022-08-03T11:10:52;29.50;37.30
6654;DHT22;3363;50.942;7.034;2022-08-03T11:13:20;29.50;36.80
6654;DHT22;3363;50.942;7.034;2022-08-03T11:15:48;29.70;35.80
6654;DHT22;3363;50.942;7.034;2022-08-03T11:18:15;29.80;36.70
6654;DHT22;3363;50.942;7.034;2022-08-03T11:20:44;29.80;35.80
6654;DHT22;3363;50.942;7.034;2022-08-03T11:23:11;29.80;36.00
6654;DHT22;3363;50.942;7.034;2022-08-03T11:28:23;29.80;36.30
6654;DHT22;3363;50.942;7.034;2022-08-03T11:30:50;29.80;34.90
6654;DHT22;3363;50.942;7.034;2022-08-03T11:33:27;29.80;36.50
6654;DHT22;3363;50.942;7.034;2022-08-03T11:35:59;29.80;36.60
6654;DHT22;3363;50.942;7.034;2022-08-03T11:38:25;29.70;36.70
6654;DHT22;3363;50.942;7.034;2022-08-03T11:40:53;29.70;36.60
6654;DHT22;3363;50.942;7.034;2022-08-03T11:46:09;29.80;36.40
6654;DHT22;3363;50.942;7.034;2022-08-03T11:48:38;29.80;36.60
6654;DHT22;3363;50.942;7.034;2022-08-03T11:51:07;29.90;36.00
6654;DHT22;3363;50.942;7.034;2022-08-03T11:53:43;30.10;37.10
6654;DHT22;3363;50.942;7.034;2022-08-03T11:56:12;30.10;36.30
6654;DHT22;3363;50.942;7.034;2022-08-03T11:58:45;30.20;36.10
6654;DHT22;3363;50.942;7.034;2022-08-03T12:01:12;30.20;35.80
6654;DHT22;3363;50.942;7.034;2022-08-03T12:03:41;30.10;36.60
6654;DHT22;3363;50.942;7.034;2022-08-03T12:06:09;30.00;35.10
6654;DHT22;3363;50.942;7.034;2022-08-03T12:08:36;29.90;35.90
6654;DHT22;3363;50.942;7.034;2022-08-03T12:11:04;29.80;37.10
6654;DHT22;3363;50.942;7.034;2022-08-03T12:13:35;29.70;36.30
6654;DHT22;3363;50.942;7.034;2022-08-03T12:16:02;29.50;37.20
6654;DHT22;3363;50.942;7.034;2022-08-03T12:18:29;29.50;37.10
6654;DHT22;3363;50.942;7.034;2022-08-03T12:21:02;29.70;37.20
6654;DHT22;3363;50.942;7.034;2022-08-03T12:23:30;29.90;36.90
6654;DHT22;3363;50.942;7.034;2022-08-03T12:26:00;30.10;36.50
6654;DHT22;3363;50.942;7.034;2022-08-03T12:28:26;30.40;35.70
6654;DHT22;3363;50.942;7.034;2022-08-03T12:30:53;30.40;35.40
6654;DHT22;3363;50.942;7.034;2022-08-03T12:33:21;30.50;35.30
6654;DHT22;3363;50.942;7.034;2022-08-03T12:35:49;30.60;35.00
6654;DHT22;3363;50.942;7.034;2022-08-03T12:38:20;30.60;34.30
6654;DHT22;3363;50.942;7.034;2022-08-03T12:41:01;30.60;32.80
6654;DHT22;3363;50.942;7.034;2022-08-03T12:43:28;30.60;33.90
6654;DHT22;3363;50.942;7.034;2022-08-03T12:46:11;30.60;33.50
6654;DHT22;3363;50.942;7.034;2022-08-03T12:51:54;30.60;34.60
6654;DHT22;3363;50.942;7.034;2022-08-03T12:54:22;30.80;33.90
6654;DHT22;3363;50.942;7.034;2022-08-03T12:57:00;30.80;34.30
6654;DHT22;3363;50.942;7.034;2022-08-03T12:59:28;30.70;34.80
6654;DHT22;3363;50.942;7.034;2022-08-03T13:01:55;30.60;34.90
6654;DHT22;3363;50.942;7.034;2022-08-03T13:04:26;30.60;35.00
6654;DHT22;3363;50.942;7.034;2022-08-03T13:06:56;30.70;34.40
6654;DHT22;3363;50.942;7.034;2022-08-03T13:09:23;30.80;34.90
6654;DHT22;3363;50.942;7.034;2022-08-03T13:12:04;30.90;32.90
6654;DHT22;3363;50.942;7.034;2022-08-03T13:14:31;31.00;32.70
6654;DHT22;3363;50.942;7.034;2022-08-03T13:16:58;31.20;34.00
6654;DHT22;3363;50.942;7.034;2022-08-03T13:19:24;31.20;33.20
6654;DHT22;3363;50.942;7.034;2022-08-03T13:21:51;31.30;33.60
6654;DHT22;3363;50.942;7.034;2022-08-03T13:24:18;31.40;33.70
6654;DHT22;3363;50.942;7.034;2022-08-03T13:26:44;31.30;32.30
6654;DHT22;3363;50.942;7.034;2022-08-03T13:29:12;31.20;33.70
6654;DHT22;3363;50.942;7.034;2022-08-03T13:31:39;31.20;33.40
6654;DHT22;3363;50.942;7.034;2022-08-03T13:34:06;31.50;30.10
6654;DHT22;3363;50.942;7.034;2022-08-03T13:36:32;31.50;31.70
6654;DHT22;3363;50.942;7.034;2022-08-03T13:38:59;31.60;30.70
6654;DHT22;3363;50.942;7.034;2022-08-03T13:41:26;31.60;31.40
6654;DHT22;3363;50.942;7.034;2022-08-03T13:43:52;31.50;33.10
6654;DHT22;3363;50.942;7.034;2022-08-03T13:46:22;31.40;31.00
6654;DHT22;3363;50.942;7.034;2022-08-03T13:48:48;31.40;32.40
6654;DHT22;3363;50.942;7.034;2022-08-03T13:51:15;31.50;33.00
6654;DHT22;3363;50.942;7.034;2022-08-03T13:53:42;31.60;32.60
6654;DHT22;3363;50.942;7.034;2022-08-03T13:56:08;31.60;30.70
6654;DHT22;3363;50.942;7.034;2022-08-03T13:58:35;31.60;32.60
6654;DHT22;3363;50.942;7.034;2022-08-03T14:01:02;31.60;31.50
6654;DHT22;3363;50.942;7.034;2022-08-03T14:03:30;31.60;32.60
6654;DHT22;3363;50.942;7.034;2022-08-03T14:05:56;31.60;32.60
6654;DHT22;3363;50.942;7.034;2022-08-03T14:08:23;31.70;32.10
6654;DHT22;3363;50.942;7.034;2022-08-03T14:10:50;31.60;32.00
6654;DHT22;3363;50.942;7.034;2022-08-03T14:13:17;31.70;32.60
6654;DHT22;3363;50.942;7.034;2022-08-03T14:15:43;31.60;31.30
6654;DHT22;3363;50.942;7.034;2022-08-03T14:18:10;31.60;32.10
6654;DHT22;3363;50.942;7.034;2022-08-03T14:20:38;31.60;31.20
6654;DHT22;3363;50.942;7.034;2022-08-03T14:23:05;31.60;32.10
6654;DHT22;3363;50.942;7.034;2022-08-03T14:25:33;31.60;31.40
6654;DHT22;3363;50.942;7.034;2022-08-03T14:27:59;31.60;31.30
6654;DHT22;3363;50.942;7.034;2022-08-03T14:30:26;31.50;30.70
6654;DHT22;3363;50.942;7.034;2022-08-03T14:32:52;31.40;32.10
6654;DHT22;3363;50.942;7.034;2022-08-03T14:35:19;31.30;32.30
6654;DHT22;3363;50.942;7.034;2022-08-03T14:37:49;31.40;30.70
6654;DHT22;3363;50.942;7.034;2022-08-03T14:40:17;31.30;32.30
6654;DHT22;3363;50.942;7.034;2022-08-03T14:42:43;31.30;31.80
6654;DHT22;3363;50.942;7.034;2022-08-03T14:45:10;31.40;32.40
6654;DHT22;3363;50.942;7.034;2022-08-03T14:47:38;31.30;32.30
6654;DHT22;3363;50.942;7.034;2022-08-03T14:50:05;31.40;32.40
6654;DHT22;3363;50.942;7.034;2022-08-03T14:52:31;31.40;32.10
6654;DHT22;3363;50.942;7.034;2022-08-03T14:55:00;31.40;32.40
6654;DHT22;3363;50.942;7.034;2022-08-03T14:57:27;31.40;32.40
6654;DHT22;3363;50.942;7.034;2022-08-03T14:59:53;31.40;32.00
6654;DHT22;3363;50.942;7.034;2022-08-03T15:02:20;31.40;32.40
6654;DHT22;3363;50.942;7.034;2022-08-03T15:04:47;31.40;31.90
6654;DHT22;3363;50.942;7.034;2022-08-03T15:07:13;31.40;32.00
6654;DHT22;3363;50.942;7.034;2022-08-03T15:09:41;31.40;32.20
6654;DHT22;3363;50.942;7.034;2022-08-03T15:12:09;31.40;32.40
6654;DHT22;3363;50.942;7.034;2022-08-03T15:14:36;31.30;32.30
6654;DHT22;3363;50.942;7.034;2022-08-03T15:17:03;31.20;32.20
6654;DHT22;3363;50.942;7.034;2022-08-03T15:19:30;31.20;32.20
6654;DHT22;3363;50.942;7.034;2022-08-03T15:21:56;31.10;32.20
6654;DHT22;3363;50.942;7.034;2022-08-03T15:24:23;31.10;32.20
6654;DHT22;3363;50.942;7.034;2022-08-03T15:26:50;31.10;32.20
6654;DHT22;3363;50.942;7.034;2022-08-03T15:29:18;31.20;31.50
6654;DHT22;3363;50.942;7.034;2022-08-03T15:31:45;31.20;32.90
6654;DHT22;3363;50.942;7.034;2022-08-03T15:34:12;31.30;31.00
6654;DHT22;3363;50.942;7.034;2022-08-03T15:36:38;31.30;32.30
6654;DHT22;3363;50.942;7.034;2022-08-03T15:39:05;31.40;32.30
6654;DHT22;3363;50.942;7.034;2022-08-03T15:41:32;31.50;30.90
6654;DHT22;3363;50.942;7.034;2022-08-03T15:43:58;31.50;31.40
6654;DHT22;3363;50.942;7.034;2022-08-03T15:46:27;31.50;31.40
6654;DHT22;3363;50.942;7.034;2022-08-03T15:48:54;31.50;31.90
6654;DHT22;3363;50.942;7.034;2022-08-03T15:51:21;31.60;31.20
6654;DHT22;3363;50.942;7.034;2022-08-03T15:53:47;31.50;31.40
6654;DHT22;3363;50.942;7.034;2022-08-03T15:56:14;31.50;31.40
6654;DHT22;3363;50.942;7.034;2022-08-03T15:58:41;31.50;31.80
6654;DHT22;3363;50.942;7.034;2022-08-03T16:01:07;31.30;32.40
6654;DHT22;3363;50.942;7.034;2022-08-03T16:03:36;31.10;31.00
6654;DHT22;3363;50.942;7.034;2022-08-03T16:06:03;31.10;32.70
6654;DHT22;3363;50.942;7.034;2022-08-03T16:08:30;31.10;31.50
6654;DHT22;3363;50.942;7.034;2022-08-03T16:10:57;31.20;32.20
6654;DHT22;3363;50.942;7.034;2022-08-03T16:13:24;31.10;32.90
6654;DHT22;3363;50.942;7.034;2022-08-03T16:15:51;31.00;32.10